Etna, Indiana
Current Conditions -  °F | °C
As of 6:54 AM on Friday 19 Dec 2014 (Local Time) from KFWA Reporting Station
Overcast Overcast  
Wind Chill: 19°   Ceiling: 2500
Heat Index: 26°   Visibility: 8mi
Dew Point: 21°   Wind: 6mph
Humidity: 81%   Direction: 280°W
Pressure: 30.27"   Gusts: NA
Location:  41.1479°N, 85.4772°W
Report Text: KFWA 191154Z 28005KT 8SM FEW017 OVC025 M03/M06 A3027 RMK AO2 SLP260 T10331061 11028 21033 53009
Loading
Personal Weather Stations






























Interactive Weather Map New forecast layout! Learn more

10-Day Weather Forecast

Advertisements
Track Severe Weather on mobile